sensor_id;sensor_type;location;lat;lon;timestamp;temperature;humidity
60039;DHT22;45916;52.734;6.544;2022-09-01T00:01:28;12.80;99.90
60039;DHT22;45916;52.734;6.544;2022-09-01T00:03:56;12.80;99.90
60039;DHT22;45916;52.734;6.544;2022-09-01T00:06:24;12.90;99.90
60039;DHT22;45916;52.734;6.544;2022-09-01T00:08:52;12.80;99.90
60039;DHT22;45916;52.734;6.544;2022-09-01T00:11:18;12.80;99.90
60039;DHT22;45916;52.734;6.544;2022-09-01T00:13:44;12.80;99.90
60039;DHT22;45916;52.734;6.544;2022-09-01T00:16:10;12.70;99.90
60039;DHT22;45916;52.734;6.544;2022-09-01T00:18:39;12.70;99.90
60039;DHT22;45916;52.734;6.544;2022-09-01T00:21:09;12.70;99.90
60039;DHT22;45916;52.734;6.544;2022-09-01T00:23:36;12.60;99.90
60039;DHT22;45916;52.734;6.544;2022-09-01T00:26:01;12.50;99.90
60039;DHT22;45916;52.734;6.544;2022-09-01T00:28:27;12.50;99.90
60039;DHT22;45916;52.734;6.544;2022-09-01T00:30:53;12.50;99.90
60039;DHT22;45916;52.734;6.544;2022-09-01T00:33:19;12.40;99.90
60039;DHT22;45916;52.734;6.544;2022-09-01T00:35:44;12.40;99.90
60039;DHT22;45916;52.734;6.544;2022-09-01T00:38:10;12.40;99.90
60039;DHT22;45916;52.734;6.544;2022-09-01T00:40:36;12.30;99.90
60039;DHT22;45916;52.734;6.544;2022-09-01T00:43:14;12.30;99.90
60039;DHT22;45916;52.734;6.544;2022-09-01T00:45:41;12.30;99.90
60039;DHT22;45916;52.734;6.544;2022-09-01T00:48:08;12.30;99.90
60039;DHT22;45916;52.734;6.544;2022-09-01T00:50:34;12.20;99.90
60039;DHT22;45916;52.734;6.544;2022-09-01T00:53:01;12.20;99.90
60039;DHT22;45916;52.734;6.544;2022-09-01T00:55:32;12.20;99.90
60039;DHT22;45916;52.734;6.544;2022-09-01T00:57:59;12.10;99.90
60039;DHT22;45916;52.734;6.544;2022-09-01T01:00:28;12.00;99.90
60039;DHT22;45916;52.734;6.544;2022-09-01T01:02:55;12.00;99.90
60039;DHT22;45916;52.734;6.544;2022-09-01T01:05:23;12.00;99.90
60039;DHT22;45916;52.734;6.544;2022-09-01T01:07:53;11.90;99.90
60039;DHT22;45916;52.734;6.544;2022-09-01T01:10:21;11.80;99.90
60039;DHT22;45916;52.734;6.544;2022-09-01T01:12:48;11.80;99.90
60039;DHT22;45916;52.734;6.544;2022-09-01T01:15:16;11.70;99.90
60039;DHT22;45916;52.734;6.544;2022-09-01T01:17:42;11.70;99.90
60039;DHT22;45916;52.734;6.544;2022-09-01T01:20:09;11.60;99.90
60039;DHT22;45916;52.734;6.544;2022-09-01T01:23:09;11.70;99.90
60039;DHT22;45916;52.734;6.544;2022-09-01T01:25:45;11.70;99.90
60039;DHT22;45916;52.734;6.544;2022-09-01T01:28:39;11.60;99.90
60039;DHT22;45916;52.734;6.544;2022-09-01T01:31:06;11.70;99.90
60039;DHT22;45916;52.734;6.544;2022-09-01T01:36:16;11.50;99.90
60039;DHT22;45916;52.734;6.544;2022-09-01T01:38:46;11.50;99.90
60039;DHT22;45916;52.734;6.544;2022-09-01T01:41:14;11.40;99.90
60039;DHT22;45916;52.734;6.544;2022-09-01T01:43:42;11.40;99.90
60039;DHT22;45916;52.734;6.544;2022-09-01T01:46:09;11.40;99.90
60039;DHT22;45916;52.734;6.544;2022-09-01T01:48:37;11.40;99.90
60039;DHT22;45916;52.734;6.544;2022-09-01T01:51:04;11.40;99.90
60039;DHT22;45916;52.734;6.544;2022-09-01T01:53:31;11.50;99.90
60039;DHT22;45916;52.734;6.544;2022-09-01T01:55:58;11.40;99.90
60039;DHT22;45916;52.734;6.544;2022-09-01T01:58:26;11.40;99.90
60039;DHT22;45916;52.734;6.544;2022-09-01T02:00:54;11.40;99.90
60039;DHT22;45916;52.734;6.544;2022-09-01T02:03:25;11.30;99.90
60039;DHT22;45916;52.734;6.544;2022-09-01T02:05:53;11.30;99.90
60039;DHT22;45916;52.734;6.544;2022-09-01T02:08:21;11.30;99.90
60039;DHT22;45916;52.734;6.544;2022-09-01T02:10:54;11.20;99.90
60039;DHT22;45916;52.734;6.544;2022-09-01T02:13:22;11.20;99.90
60039;DHT22;45916;52.734;6.544;2022-09-01T02:15:54;11.30;99.90
60039;DHT22;45916;52.734;6.544;2022-09-01T02:18:24;11.30;99.90
60039;DHT22;45916;52.734;6.544;2022-09-01T02:20:53;11.30;99.90
60039;DHT22;45916;52.734;6.544;2022-09-01T02:23:20;11.20;99.90
60039;DHT22;45916;52.734;6.544;2022-09-01T02:25:51;11.20;99.90
60039;DHT22;45916;52.734;6.544;2022-09-01T02:28:18;11.10;99.90
60039;DHT22;45916;52.734;6.544;2022-09-01T02:30:47;11.10;99.90
60039;DHT22;45916;52.734;6.544;2022-09-01T02:33:17;11.00;99.90
60039;DHT22;45916;52.734;6.544;2022-09-01T02:36:05;11.00;99.90
60039;DHT22;45916;52.734;6.544;2022-09-01T02:38:32;10.90;99.90
60039;DHT22;45916;52.734;6.544;2022-09-01T02:40:59;10.90;99.90
60039;DHT22;45916;52.734;6.544;2022-09-01T02:43:26;10.90;99.90
60039;DHT22;45916;52.734;6.544;2022-09-01T02:45:54;10.90;99.90
60039;DHT22;45916;52.734;6.544;2022-09-01T02:48:28;10.90;99.90
60039;DHT22;45916;52.734;6.544;2022-09-01T02:51:01;10.80;99.90
60039;DHT22;45916;52.734;6.544;2022-09-01T02:53:29;10.80;99.90
60039;DHT22;45916;52.734;6.544;2022-09-01T02:55:55;10.80;99.90
60039;DHT22;45916;52.734;6.544;2022-09-01T02:58:24;10.80;99.90
60039;DHT22;45916;52.734;6.544;2022-09-01T03:00:55;10.80;99.90
60039;DHT22;45916;52.734;6.544;2022-09-01T03:03:21;10.80;99.90
60039;DHT22;45916;52.734;6.544;2022-09-01T03:05:49;10.80;99.90
60039;DHT22;45916;52.734;6.544;2022-09-01T03:08:18;10.80;99.90
60039;DHT22;45916;52.734;6.544;2022-09-01T03:10:45;10.70;99.90
60039;DHT22;45916;52.734;6.544;2022-09-01T03:13:20;10.70;99.90
60039;DHT22;45916;52.734;6.544;2022-09-01T03:15:46;10.70;99.90
60039;DHT22;45916;52.734;6.544;2022-09-01T03:18:13;10.70;99.90
60039;DHT22;45916;52.734;6.544;2022-09-01T03:20:41;10.60;99.90
60039;DHT22;45916;52.734;6.544;2022-09-01T03:23:08;10.60;99.90
60039;DHT22;45916;52.734;6.544;2022-09-01T03:25:35;10.60;99.90
60039;DHT22;45916;52.734;6.544;2022-09-01T03:28:02;10.50;99.90
60039;DHT22;45916;52.734;6.544;2022-09-01T03:30:31;10.60;99.90
60039;DHT22;45916;52.734;6.544;2022-09-01T03:32:59;10.60;99.90
60039;DHT22;45916;52.734;6.544;2022-09-01T03:35:26;10.50;99.90
60039;DHT22;45916;52.734;6.544;2022-09-01T03:37:54;10.60;99.90
60039;DHT22;45916;52.734;6.544;2022-09-01T03:40:20;10.60;99.90
60039;DHT22;45916;52.734;6.544;2022-09-01T03:42:46;10.60;99.90
60039;DHT22;45916;52.734;6.544;2022-09-01T03:45:12;10.60;99.90
60039;DHT22;45916;52.734;6.544;2022-09-01T03:47:41;10.60;99.90
60039;DHT22;45916;52.734;6.544;2022-09-01T03:50:10;10.60;99.90
60039;DHT22;45916;52.734;6.544;2022-09-01T03:52:51;10.60;99.90
60039;DHT22;45916;52.734;6.544;2022-09-01T03:55:23;10.50;99.90
60039;DHT22;45916;52.734;6.544;2022-09-01T03:57:56;10.50;99.90
60039;DHT22;45916;52.734;6.544;2022-09-01T04:00:24;10.50;99.90
60039;DHT22;45916;52.734;6.544;2022-09-01T04:02:56;10.50;99.90
60039;DHT22;45916;52.734;6.544;2022-09-01T04:05:24;10.40;99.90
60039;DHT22;45916;52.734;6.544;2022-09-01T04:07:55;10.50;99.90
60039;DHT22;45916;52.734;6.544;2022-09-01T04:10:21;10.60;99.90
60039;DHT22;45916;52.734;6.544;2022-09-01T04:12:47;10.60;99.90
60039;DHT22;45916;52.734;6.544;2022-09-01T04:15:15;10.80;99.90
60039;DHT22;45916;52.734;6.544;2022-09-01T04:17:42;10.70;99.90
60039;DHT22;45916;52.734;6.544;2022-09-01T04:20:27;10.80;99.90
60039;DHT22;45916;52.734;6.544;2022-09-01T04:22:53;10.80;99.90
60039;DHT22;45916;52.734;6.544;2022-09-01T04:25:20;10.70;99.90
60039;DHT22;45916;52.734;6.544;2022-09-01T04:27:51;10.70;99.90
60039;DHT22;45916;52.734;6.544;2022-09-01T04:30:21;10.70;99.90
60039;DHT22;45916;52.734;6.544;2022-09-01T04:32:50;10.70;99.90
60039;DHT22;45916;52.734;6.544;2022-09-01T04:35:16;10.60;99.90
60039;DHT22;45916;52.734;6.544;2022-09-01T04:37:43;10.50;99.90
60039;DHT22;45916;52.734;6.544;2022-09-01T04:40:12;10.60;99.90
60039;DHT22;45916;52.734;6.544;2022-09-01T04:42:39;10.50;99.90
60039;DHT22;45916;52.734;6.544;2022-09-01T04:45:07;10.50;99.90
60039;DHT22;45916;52.734;6.544;2022-09-01T04:47:35;10.50;99.90
60039;DHT22;45916;52.734;6.544;2022-09-01T04:50:07;10.40;99.90
60039;DHT22;45916;52.734;6.544;2022-09-01T04:52:39;10.50;99.90
60039;DHT22;45916;52.734;6.544;2022-09-01T04:55:08;10.50;99.90
60039;DHT22;45916;52.734;6.544;2022-09-01T04:57:46;10.60;99.90
60039;DHT22;45916;52.734;6.544;2022-09-01T05:00:19;10.70;99.90
60039;DHT22;45916;52.734;6.544;2022-09-01T05:02:50;10.70;99.90
60039;DHT22;45916;52.734;6.544;2022-09-01T05:05:21;10.80;99.90
60039;DHT22;45916;52.734;6.544;2022-09-01T05:07:48;11.00;99.90
60039;DHT22;45916;52.734;6.544;2022-09-01T05:10:18;11.50;99.90
60039;DHT22;45916;52.734;6.544;2022-09-01T05:12:44;12.20;99.90
60039;DHT22;45916;52.734;6.544;2022-09-01T05:15:12;13.00;99.90
60039;DHT22;45916;52.734;6.544;2022-09-01T05:17:38;13.80;99.90
60039;DHT22;45916;52.734;6.544;2022-09-01T05:20:05;14.60;99.90
60039;DHT22;45916;52.734;6.544;2022-09-01T05:22:32;15.60;99.90
60039;DHT22;45916;52.734;6.544;2022-09-01T05:24:59;16.60;99.90
60039;DHT22;45916;52.734;6.544;2022-09-01T05:27:37;17.40;99.90
60039;DHT22;45916;52.734;6.544;2022-09-01T05:30:05;18.20;99.90
60039;DHT22;45916;52.734;6.544;2022-09-01T05:32:36;18.80;99.90
60039;DHT22;45916;52.734;6.544;2022-09-01T05:35:05;19.40;94.70
60039;DHT22;45916;52.734;6.544;2022-09-01T05:37:35;20.30;92.70
60039;DHT22;45916;52.734;6.544;2022-09-01T05:40:03;20.80;86.90
60039;DHT22;45916;52.734;6.544;2022-09-01T05:42:29;21.30;86.80
60039;DHT22;45916;52.734;6.544;2022-09-01T05:44:54;21.60;82.10
60039;DHT22;45916;52.734;6.544;2022-09-01T05:47:20;22.00;76.40
60039;DHT22;45916;52.734;6.544;2022-09-01T05:49:46;22.30;73.40
60039;DHT22;45916;52.734;6.544;2022-09-01T05:52:12;22.50;71.70
60039;DHT22;45916;52.734;6.544;2022-09-01T05:54:38;22.80;70.30
60039;DHT22;45916;52.734;6.544;2022-09-01T05:57:04;23.10;69.70
60039;DHT22;45916;52.734;6.544;2022-09-01T05:59:32;23.60;67.40
60039;DHT22;45916;52.734;6.544;2022-09-01T06:01:58;24.50;64.00
60039;DHT22;45916;52.734;6.544;2022-09-01T06:04:25;25.10;61.90
60039;DHT22;45916;52.734;6.544;2022-09-01T06:06:52;25.80;59.60
60039;DHT22;45916;52.734;6.544;2022-09-01T06:09:19;26.50;58.90
60039;DHT22;45916;52.734;6.544;2022-09-01T06:11:48;27.00;56.30
60039;DHT22;45916;52.734;6.544;2022-09-01T06:14:14;27.70;54.30
60039;DHT22;45916;52.734;6.544;2022-09-01T06:16:41;28.00;53.50
60039;DHT22;45916;52.734;6.544;2022-09-01T06:19:08;28.70;53.20
60039;DHT22;45916;52.734;6.544;2022-09-01T06:21:36;29.70;51.00
60039;DHT22;45916;52.734;6.544;2022-09-01T06:24:13;30.40;50.00
60039;DHT22;45916;52.734;6.544;2022-09-01T06:26:43;31.10;49.00
60039;DHT22;45916;52.734;6.544;2022-09-01T06:29:10;31.40;47.10
60039;DHT22;45916;52.734;6.544;2022-09-01T06:31:40;31.60;46.20
60039;DHT22;45916;52.734;6.544;2022-09-01T06:34:09;30.90;45.60
60039;DHT22;45916;52.734;6.544;2022-09-01T06:36:36;31.10;45.80
60039;DHT22;45916;52.734;6.544;2022-09-01T06:39:05;30.50;46.60
60039;DHT22;45916;52.734;6.544;2022-09-01T06:41:31;30.60;46.50
60039;DHT22;45916;52.734;6.544;2022-09-01T06:43:57;30.90;46.60
60039;DHT22;45916;52.734;6.544;2022-09-01T06:46:26;30.80;45.60
60039;DHT22;45916;52.734;6.544;2022-09-01T06:48:54;30.60;45.80
60039;DHT22;45916;52.734;6.544;2022-09-01T06:51:24;30.10;46.90
60039;DHT22;45916;52.734;6.544;2022-09-01T06:53:51;30.10;46.60
60039;DHT22;45916;52.734;6.544;2022-09-01T06:56:25;30.20;46.00
60039;DHT22;45916;52.734;6.544;2022-09-01T06:58:53;30.50;45.70
60039;DHT22;45916;52.734;6.544;2022-09-01T07:01:20;30.80;44.40
60039;DHT22;45916;52.734;6.544;2022-09-01T07:03:49;30.80;44.00
60039;DHT22;45916;52.734;6.544;2022-09-01T07:06:16;30.90;43.80
60039;DHT22;45916;52.734;6.544;2022-09-01T07:08:43;31.20;44.30
60039;DHT22;45916;52.734;6.544;2022-09-01T07:11:23;31.50;44.30
60039;DHT22;45916;52.734;6.544;2022-09-01T07:13:53;32.30;42.90
60039;DHT22;45916;52.734;6.544;2022-09-01T07:16:21;32.60;42.90
60039;DHT22;45916;52.734;6.544;2022-09-01T07:18:49;32.30;42.80
60039;DHT22;45916;52.734;6.544;2022-09-01T07:21:16;32.90;42.10
60039;DHT22;45916;52.734;6.544;2022-09-01T07:23:42;33.50;41.70
60039;DHT22;45916;52.734;6.544;2022-09-01T07:26:09;33.40;41.30
60039;DHT22;45916;52.734;6.544;2022-09-01T07:28:35;34.30;40.50
60039;DHT22;45916;52.734;6.544;2022-09-01T07:31:01;35.50;39.10
60039;DHT22;45916;52.734;6.544;2022-09-01T07:33:30;35.90;37.60
60039;DHT22;45916;52.734;6.544;2022-09-01T07:35:56;36.10;36.60
60039;DHT22;45916;52.734;6.544;2022-09-01T07:38:26;36.00;37.30
60039;DHT22;45916;52.734;6.544;2022-09-01T07:40:53;36.60;37.30
60039;DHT22;45916;52.734;6.544;2022-09-01T07:43:25;37.90;35.60
60039;DHT22;45916;52.734;6.544;2022-09-01T07:45:54;38.60;34.10
60039;DHT22;45916;52.734;6.544;2022-09-01T07:48:22;38.30;33.70
60039;DHT22;45916;52.734;6.544;2022-09-01T07:50:53;37.40;34.70
60039;DHT22;45916;52.734;6.544;2022-09-01T07:53:22;36.90;35.30
60039;DHT22;45916;52.734;6.544;2022-09-01T07:55:50;37.40;34.80
60039;DHT22;45916;52.734;6.544;2022-09-01T07:58:18;37.50;34.60
60039;DHT22;45916;52.734;6.544;2022-09-01T08:00:44;37.40;35.00
60039;DHT22;45916;52.734;6.544;2022-09-01T08:03:16;37.30;34.60
60039;DHT22;45916;52.734;6.544;2022-09-01T08:05:42;38.10;34.80
60039;DHT22;45916;52.734;6.544;2022-09-01T08:08:08;39.50;33.00
60039;DHT22;45916;52.734;6.544;2022-09-01T08:10:38;40.40;33.10
60039;DHT22;45916;52.734;6.544;2022-09-01T08:13:05;41.90;32.20
60039;DHT22;45916;52.734;6.544;2022-09-01T08:15:31;42.00;30.30
60039;DHT22;45916;52.734;6.544;2022-09-01T08:17:56;41.70;30.40
60039;DHT22;45916;52.734;6.544;2022-09-01T08:20:22;42.00;30.00
60039;DHT22;45916;52.734;6.544;2022-09-01T08:22:48;41.40;30.30
60039;DHT22;45916;52.734;6.544;2022-09-01T08:25:14;40.30;31.20
60039;DHT22;45916;52.734;6.544;2022-09-01T08:27:40;40.70;31.00
60039;DHT22;45916;52.734;6.544;2022-09-01T08:30:09;40.90;30.80
60039;DHT22;45916;52.734;6.544;2022-09-01T08:32:37;40.90;30.50
60039;DHT22;45916;52.734;6.544;2022-09-01T08:35:05;39.90;31.20
60039;DHT22;45916;52.734;6.544;2022-09-01T08:37:31;39.40;32.20
60039;DHT22;45916;52.734;6.544;2022-09-01T08:39:57;39.90;32.30
60039;DHT22;45916;52.734;6.544;2022-09-01T08:42:49;41.10;31.70
60039;DHT22;45916;52.734;6.544;2022-09-01T08:45:27;42.00;30.60
60039;DHT22;45916;52.734;6.544;2022-09-01T08:47:56;42.10;30.00
60039;DHT22;45916;52.734;6.544;2022-09-01T08:50:24;42.20;30.10
60039;DHT22;45916;52.734;6.544;2022-09-01T08:53:36;43.40;30.20
60039;DHT22;45916;52.734;6.544;2022-09-01T08:56:03;45.20;28.40
60039;DHT22;45916;52.734;6.544;2022-09-01T08:58:30;45.90;27.50
60039;DHT22;45916;52.734;6.544;2022-09-01T09:01:08;46.40;27.80
60039;DHT22;45916;52.734;6.544;2022-09-01T09:04:00;45.00;27.70
60039;DHT22;45916;52.734;6.544;2022-09-01T09:09:20;42.90;28.20
60039;DHT22;45916;52.734;6.544;2022-09-01T09:12:03;42.30;28.70
60039;DHT22;45916;52.734;6.544;2022-09-01T09:14:53;41.90;28.60
60039;DHT22;45916;52.734;6.544;2022-09-01T09:17:36;41.00;29.50
60039;DHT22;45916;52.734;6.544;2022-09-01T09:20:04;39.50;29.80
60039;DHT22;45916;52.734;6.544;2022-09-01T09:22:32;37.80;31.20
60039;DHT22;45916;52.734;6.544;2022-09-01T09:25:11;37.40;32.60
60039;DHT22;45916;52.734;6.544;2022-09-01T09:27:41;35.40;33.30
60039;DHT22;45916;52.734;6.544;2022-09-01T09:32:49;36.00;33.40
60039;DHT22;45916;52.734;6.544;2022-09-01T09:38:16;36.10;33.10
60039;DHT22;45916;52.734;6.544;2022-09-01T09:43:59;36.60;31.70
60039;DHT22;45916;52.734;6.544;2022-09-01T09:46:39;35.30;32.80
60039;DHT22;45916;52.734;6.544;2022-09-01T09:49:49;34.40;34.00
60039;DHT22;45916;52.734;6.544;2022-09-01T09:54:35;32.90;36.00
60039;DHT22;45916;52.734;6.544;2022-09-01T10:04:50;31.80;37.30
60039;DHT22;45916;52.734;6.544;2022-09-01T10:07:36;31.80;37.90
60039;DHT22;45916;52.734;6.544;2022-09-01T10:10:06;32.70;37.90
60039;DHT22;45916;52.734;6.544;2022-09-01T10:12:32;33.30;36.80
60039;DHT22;45916;52.734;6.544;2022-09-01T10:15:05;33.10;36.50
60039;DHT22;45916;52.734;6.544;2022-09-01T10:17:35;32.80;37.10
60039;DHT22;45916;52.734;6.544;2022-09-01T10:20:10;33.60;36.80
60039;DHT22;45916;52.734;6.544;2022-09-01T10:22:38;33.90;35.10
60039;DHT22;45916;52.734;6.544;2022-09-01T10:25:08;34.10;36.10
60039;DHT22;45916;52.734;6.544;2022-09-01T10:27:39;34.30;34.30
60039;DHT22;45916;52.734;6.544;2022-09-01T10:30:07;33.30;34.50
60039;DHT22;45916;52.734;6.544;2022-09-01T10:32:41;33.50;35.50
60039;DHT22;45916;52.734;6.544;2022-09-01T10:35:11;33.60;35.50
60039;DHT22;45916;52.734;6.544;2022-09-01T10:37:40;33.90;35.40
60039;DHT22;45916;52.734;6.544;2022-09-01T10:40:11;33.80;34.50
60039;DHT22;45916;52.734;6.544;2022-09-01T10:42:38;33.50;35.40
60039;DHT22;45916;52.734;6.544;2022-09-01T10:45:16;31.40;36.40
60039;DHT22;45916;52.734;6.544;2022-09-01T10:47:43;30.40;37.20
60039;DHT22;45916;52.734;6.544;2022-09-01T10:50:35;28.30;40.40
60039;DHT22;45916;52.734;6.544;2022-09-01T10:53:04;27.40;42.10
60039;DHT22;45916;52.734;6.544;2022-09-01T10:55:40;27.90;42.00
60039;DHT22;45916;52.734;6.544;2022-09-01T10:58:24;27.60;41.70
60039;DHT22;45916;52.734;6.544;2022-09-01T11:00:53;26.30;43.00
60039;DHT22;45916;52.734;6.544;2022-09-01T11:06:06;28.10;42.70
60039;DHT22;45916;52.734;6.544;2022-09-01T11:13:57;25.90;44.50
60039;DHT22;45916;52.734;6.544;2022-09-01T11:16:40;25.60;46.30
60039;DHT22;45916;52.734;6.544;2022-09-01T11:19:31;25.30;45.50
60039;DHT22;45916;52.734;6.544;2022-09-01T11:27:08;24.10;47.80
60039;DHT22;45916;52.734;6.544;2022-09-01T11:29:54;23.90;47.30
60039;DHT22;45916;52.734;6.544;2022-09-01T11:32:24;23.90;49.10
60039;DHT22;45916;52.734;6.544;2022-09-01T11:34:54;24.10;48.00
60039;DHT22;45916;52.734;6.544;2022-09-01T11:37:23;23.90;47.20
60039;DHT22;45916;52.734;6.544;2022-09-01T11:39:59;23.60;48.10
60039;DHT22;45916;52.734;6.544;2022-09-01T11:42:35;23.80;49.10
60039;DHT22;45916;52.734;6.544;2022-09-01T11:47:44;24.00;48.90
60039;DHT22;45916;52.734;6.544;2022-09-01T11:50:32;24.20;47.90
60039;DHT22;45916;52.734;6.544;2022-09-01T11:53:19;24.20;47.80
60039;DHT22;45916;52.734;6.544;2022-09-01T11:55:48;24.20;49.10
60039;DHT22;45916;52.734;6.544;2022-09-01T12:00:56;24.80;48.60
60039;DHT22;45916;52.734;6.544;2022-09-01T12:03:29;24.70;47.50
60039;DHT22;45916;52.734;6.544;2022-09-01T12:05:57;24.50;47.80
60039;DHT22;45916;52.734;6.544;2022-09-01T12:08:27;24.30;49.60
60039;DHT22;45916;52.734;6.544;2022-09-01T12:11:33;24.30;48.70
60039;DHT22;45916;52.734;6.544;2022-09-01T12:14:02;24.30;48.40
60039;DHT22;45916;52.734;6.544;2022-09-01T12:16:29;24.10;49.10
60039;DHT22;45916;52.734;6.544;2022-09-01T12:18:57;23.70;49.40
60039;DHT22;45916;52.734;6.544;2022-09-01T12:21:35;23.60;49.60
60039;DHT22;45916;52.734;6.544;2022-09-01T12:24:29;23.50;49.60
60039;DHT22;45916;52.734;6.544;2022-09-01T12:26:56;23.40;48.80
60039;DHT22;45916;52.734;6.544;2022-09-01T12:29:24;23.30;49.10
60039;DHT22;45916;52.734;6.544;2022-09-01T12:31:51;23.30;49.20
60039;DHT22;45916;52.734;6.544;2022-09-01T12:34:25;23.60;49.50
60039;DHT22;45916;52.734;6.544;2022-09-01T12:39:42;24.00;47.40
60039;DHT22;45916;52.734;6.544;2022-09-01T12:44:48;23.70;49.40
60039;DHT22;45916;52.734;6.544;2022-09-01T12:52:34;24.00;49.90
60039;DHT22;45916;52.734;6.544;2022-09-01T12:57:30;23.30;47.90
60039;DHT22;45916;52.734;6.544;2022-09-01T13:02:42;23.30;49.90
60039;DHT22;45916;52.734;6.544;2022-09-01T13:07:59;23.70;47.00
60039;DHT22;45916;52.734;6.544;2022-09-01T13:10:31;24.10;47.10
60039;DHT22;45916;52.734;6.544;2022-09-01T13:12:57;24.20;47.40
60039;DHT22;45916;52.734;6.544;2022-09-01T13:15:24;24.10;48.70
60039;DHT22;45916;52.734;6.544;2022-09-01T13:17:51;24.20;48.00
60039;DHT22;45916;52.734;6.544;2022-09-01T13:20:17;24.10;47.80
60039;DHT22;45916;52.734;6.544;2022-09-01T13:22:43;24.10;48.10
60039;DHT22;45916;52.734;6.544;2022-09-01T13:25:14;24.10;48.20
60039;DHT22;45916;52.734;6.544;2022-09-01T13:27:42;24.10;48.20
60039;DHT22;45916;52.734;6.544;2022-09-01T13:30:10;24.10;47.00
60039;DHT22;45916;52.734;6.544;2022-09-01T13:32:37;24.10;46.30
60039;DHT22;45916;52.734;6.544;2022-09-01T13:35:03;24.00;46.90
60039;DHT22;45916;52.734;6.544;2022-09-01T13:37:29;24.10;46.70
60039;DHT22;45916;52.734;6.544;2022-09-01T13:39:54;24.20;46.30
60039;DHT22;45916;52.734;6.544;2022-09-01T13:42:20;24.00;45.90
60039;DHT22;45916;52.734;6.544;2022-09-01T13:44:46;23.80;46.30
60039;DHT22;45916;52.734;6.544;2022-09-01T13:47:12;23.60;47.20
60039;DHT22;45916;52.734;6.544;2022-09-01T13:49:38;23.30;47.70
60039;DHT22;45916;52.734;6.544;2022-09-01T13:52:07;23.10;48.50
60039;DHT22;45916;52.734;6.544;2022-09-01T13:54:32;23.00;48.70
60039;DHT22;45916;52.734;6.544;2022-09-01T13:56:58;22.90;48.80
60039;DHT22;45916;52.734;6.544;2022-09-01T13:59:24;22.70;50.20
60039;DHT22;45916;52.734;6.544;2022-09-01T14:01:49;22.60;48.50
60039;DHT22;45916;52.734;6.544;2022-09-01T14:04:15;22.60;48.90
60039;DHT22;45916;52.734;6.544;2022-09-01T14:06:43;22.80;48.60
60039;DHT22;45916;52.734;6.544;2022-09-01T14:09:10;23.00;48.40
60039;DHT22;45916;52.734;6.544;2022-09-01T14:11:36;23.20;49.00
60039;DHT22;45916;52.734;6.544;2022-09-01T14:14:02;23.30;48.40
60039;DHT22;45916;52.734;6.544;2022-09-01T14:16:28;23.50;48.40
60039;DHT22;45916;52.734;6.544;2022-09-01T14:18:54;23.60;48.10
60039;DHT22;45916;52.734;6.544;2022-09-01T14:21:20;23.60;48.20
60039;DHT22;45916;52.734;6.544;2022-09-01T14:23:46;23.50;48.60
60039;DHT22;45916;52.734;6.544;2022-09-01T14:26:14;23.50;48.60
60039;DHT22;45916;52.734;6.544;2022-09-01T14:28:41;23.60;46.60
60039;DHT22;45916;52.734;6.544;2022-09-01T14:31:15;23.70;47.20
60039;DHT22;45916;52.734;6.544;2022-09-01T14:33:43;23.80;47.00
60039;DHT22;45916;52.734;6.544;2022-09-01T14:36:20;23.70;47.20
60039;DHT22;45916;52.734;6.544;2022-09-01T14:38:48;23.70;47.80
60039;DHT22;45916;52.734;6.544;2022-09-01T14:41:18;23.80;47.00
60039;DHT22;45916;52.734;6.544;2022-09-01T14:43:46;23.80;47.40
60039;DHT22;45916;52.734;6.544;2022-09-01T14:46:13;23.70;48.10
60039;DHT22;45916;52.734;6.544;2022-09-01T14:48:39;23.70;47.50
60039;DHT22;45916;52.734;6.544;2022-09-01T14:51:07;23.50;47.10
60039;DHT22;45916;52.734;6.544;2022-09-01T14:53:33;23.30;46.90
60039;DHT22;45916;52.734;6.544;2022-09-01T14:55:59;23.00;47.10
60039;DHT22;45916;52.734;6.544;2022-09-01T14:58:27;22.80;48.10
60039;DHT22;45916;52.734;6.544;2022-09-01T15:00:54;22.90;49.00
60039;DHT22;45916;52.734;6.544;2022-09-01T15:03:24;23.10;48.80
60039;DHT22;45916;52.734;6.544;2022-09-01T15:05:53;23.30;48.50
60039;DHT22;45916;52.734;6.544;2022-09-01T15:08:20;23.40;47.40
60039;DHT22;45916;52.734;6.544;2022-09-01T15:10:46;23.50;46.90
60039;DHT22;45916;52.734;6.544;2022-09-01T15:13:12;23.50;46.70
60039;DHT22;45916;52.734;6.544;2022-09-01T15:15:38;23.50;46.90
60039;DHT22;45916;52.734;6.544;2022-09-01T15:18:04;23.50;47.20
60039;DHT22;45916;52.734;6.544;2022-09-01T15:20:30;23.50;47.50
60039;DHT22;45916;52.734;6.544;2022-09-01T15:23:21;23.50;47.70
60039;DHT22;45916;52.734;6.544;2022-09-01T15:25:49;23.50;46.80
60039;DHT22;45916;52.734;6.544;2022-09-01T15:28:15;23.60;45.80
60039;DHT22;45916;52.734;6.544;2022-09-01T15:30:41;23.60;45.30
60039;DHT22;45916;52.734;6.544;2022-09-01T15:33:08;23.70;45.80
60039;DHT22;45916;52.734;6.544;2022-09-01T15:35:35;23.70;46.80
60039;DHT22;45916;52.734;6.544;2022-09-01T15:38:00;23.60;46.00
60039;DHT22;45916;52.734;6.544;2022-09-01T15:40:27;23.50;45.60
60039;DHT22;45916;52.734;6.544;2022-09-01T15:42:54;23.40;46.80
60039;DHT22;45916;52.734;6.544;2022-09-01T15:45:23;23.20;47.30
60039;DHT22;45916;52.734;6.544;2022-09-01T15:47:49;23.10;47.30
60039;DHT22;45916;52.734;6.544;2022-09-01T15:50:17;23.10;48.20
60039;DHT22;45916;52.734;6.544;2022-09-01T15:55:23;23.20;48.00
60039;DHT22;45916;52.734;6.544;2022-09-01T15:57:49;23.40;49.80
60039;DHT22;45916;52.734;6.544;2022-09-01T16:00:16;23.40;47.80
60039;DHT22;45916;52.734;6.544;2022-09-01T16:02:42;23.40;46.90
60039;DHT22;45916;52.734;6.544;2022-09-01T16:05:08;23.40;47.00
60039;DHT22;45916;52.734;6.544;2022-09-01T16:07:35;23.30;46.70
60039;DHT22;45916;52.734;6.544;2022-09-01T16:10:00;23.10;46.20
60039;DHT22;45916;52.734;6.544;2022-09-01T16:12:26;22.90;47.60
60039;DHT22;45916;52.734;6.544;2022-09-01T16:14:53;22.70;47.80
60039;DHT22;45916;52.734;6.544;2022-09-01T16:17:38;22.60;48.10
60039;DHT22;45916;52.734;6.544;2022-09-01T16:20:27;22.40;48.60
60039;DHT22;45916;52.734;6.544;2022-09-01T16:23:16;22.30;49.10
60039;DHT22;45916;52.734;6.544;2022-09-01T16:25:42;22.20;49.90
60039;DHT22;45916;52.734;6.544;2022-09-01T16:28:24;22.10;49.60
60039;DHT22;45916;52.734;6.544;2022-09-01T16:30:54;22.10;49.30
60039;DHT22;45916;52.734;6.544;2022-09-01T16:33:21;22.10;48.80
60039;DHT22;45916;52.734;6.544;2022-09-01T16:38:49;22.10;49.20
60039;DHT22;45916;52.734;6.544;2022-09-01T16:49:41;22.10;47.80
60039;DHT22;45916;52.734;6.544;2022-09-01T16:54:50;22.00;47.70
60039;DHT22;45916;52.734;6.544;2022-09-01T16:57:44;21.90;48.40
60039;DHT22;45916;52.734;6.544;2022-09-01T17:00:11;21.90;47.70
60039;DHT22;45916;52.734;6.544;2022-09-01T17:03:06;21.80;47.80
60039;DHT22;45916;52.734;6.544;2022-09-01T17:08:31;21.70;48.40